sensor_id;sensor_type;location;lat;lon;timestamp;P1;durP1;ratioP1;P2;durP2;ratioP2
19341;SDS011;9807;48.258;12.690;2023-10-19T00:01:14;17.00;;;11.53;;
19341;SDS011;9807;48.258;12.690;2023-10-19T00:03:41;22.60;;;16.73;;
19341;SDS011;9807;48.258;12.690;2023-10-19T00:06:06;14.70;;;11.90;;
19341;SDS011;9807;48.258;12.690;2023-10-19T00:08:32;15.33;;;12.17;;
19341;SDS011;9807;48.258;12.690;2023-10-19T00:11:07;21.90;;;15.23;;
19341;SDS011;9807;48.258;12.690;2023-10-19T00:13:43;15.97;;;12.77;;
19341;SDS011;9807;48.258;12.690;2023-10-19T00:16:09;17.23;;;13.40;;
19341;SDS011;9807;48.258;12.690;2023-10-19T00:18:57;18.83;;;12.33;;
19341;SDS011;9807;48.258;12.690;2023-10-19T00:21:25;17.90;;;13.50;;
19341;SDS011;9807;48.258;12.690;2023-10-19T00:23:55;14.97;;;11.73;;
19341;SDS011;9807;48.258;12.690;2023-10-19T00:26:28;23.80;;;18.03;;
19341;SDS011;9807;48.258;12.690;2023-10-19T00:28:55;15.37;;;12.63;;
19341;SDS011;9807;48.258;12.690;2023-10-19T00:31:24;15.47;;;11.97;;
19341;SDS011;9807;48.258;12.690;2023-10-19T00:33:54;18.07;;;14.77;;
19341;SDS011;9807;48.258;12.690;2023-10-19T00:36:20;16.60;;;13.40;;
19341;SDS011;9807;48.258;12.690;2023-10-19T00:38:47;12.70;;;10.80;;
19341;SDS011;9807;48.258;12.690;2023-10-19T00:41:22;20.63;;;14.23;;
19341;SDS011;9807;48.258;12.690;2023-10-19T00:43:54;15.70;;;11.63;;
19341;SDS011;9807;48.258;12.690;2023-10-19T00:46:32;16.50;;;10.37;;
19341;SDS011;9807;48.258;12.690;2023-10-19T00:49:03;13.17;;;10.43;;
19341;SDS011;9807;48.258;12.690;2023-10-19T00:51:41;13.77;;;10.10;;
19341;SDS011;9807;48.258;12.690;2023-10-19T00:54:20;11.83;;;9.43;;
19341;SDS011;9807;48.258;12.690;2023-10-19T00:57:23;10.80;;;9.47;;
19341;SDS011;9807;48.258;12.690;2023-10-19T00:59:59;12.43;;;9.30;;
19341;SDS011;9807;48.258;12.690;2023-10-19T01:02:37;13.10;;;10.13;;
19341;SDS011;9807;48.258;12.690;2023-10-19T01:05:11;13.27;;;10.23;;
19341;SDS011;9807;48.258;12.690;2023-10-19T01:07:46;12.93;;;10.80;;
19341;SDS011;9807;48.258;12.690;2023-10-19T01:10:20;11.47;;;9.23;;
19341;SDS011;9807;48.258;12.690;2023-10-19T01:12:47;12.27;;;10.20;;
19341;SDS011;9807;48.258;12.690;2023-10-19T01:15:18;15.83;;;10.63;;
19341;SDS011;9807;48.258;12.690;2023-10-19T01:17:55;10.80;;;9.23;;
19341;SDS011;9807;48.258;12.690;2023-10-19T01:20:22;11.93;;;9.10;;
19341;SDS011;9807;48.258;12.690;2023-10-19T01:25:42;11.53;;;9.70;;
19341;SDS011;9807;48.258;12.690;2023-10-19T01:28:12;11.03;;;9.43;;
19341;SDS011;9807;48.258;12.690;2023-10-19T01:30:42;11.33;;;9.23;;
19341;SDS011;9807;48.258;12.690;2023-10-19T01:33:10;14.07;;;11.33;;
19341;SDS011;9807;48.258;12.690;2023-10-19T01:35:40;11.63;;;10.00;;
19341;SDS011;9807;48.258;12.690;2023-10-19T01:38:26;13.87;;;10.23;;
19341;SDS011;9807;48.258;12.690;2023-10-19T01:40:56;14.73;;;11.70;;
19341;SDS011;9807;48.258;12.690;2023-10-19T01:43:24;14.10;;;10.33;;
19341;SDS011;9807;48.258;12.690;2023-10-19T01:45:53;10.93;;;9.23;;
19341;SDS011;9807;48.258;12.690;2023-10-19T01:48:20;16.90;;;12.57;;
19341;SDS011;9807;48.258;12.690;2023-10-19T01:50:59;19.20;;;15.33;;
19341;SDS011;9807;48.258;12.690;2023-10-19T01:53:29;21.87;;;16.23;;
19341;SDS011;9807;48.258;12.690;2023-10-19T01:55:56;14.13;;;11.30;;
19341;SDS011;9807;48.258;12.690;2023-10-19T01:58:26;14.60;;;11.20;;
19341;SDS011;9807;48.258;12.690;2023-10-19T02:00:58;11.83;;;10.17;;
19341;SDS011;9807;48.258;12.690;2023-10-19T02:03:27;11.83;;;9.70;;
19341;SDS011;9807;48.258;12.690;2023-10-19T02:06:00;12.40;;;10.00;;
19341;SDS011;9807;48.258;12.690;2023-10-19T02:08:37;12.17;;;9.97;;
19341;SDS011;9807;48.258;12.690;2023-10-19T02:11:06;14.83;;;11.90;;
19341;SDS011;9807;48.258;12.690;2023-10-19T02:13:43;15.87;;;12.00;;
19341;SDS011;9807;48.258;12.690;2023-10-19T02:16:11;16.33;;;13.57;;
19341;SDS011;9807;48.258;12.690;2023-10-19T02:18:46;13.00;;;10.70;;
19341;SDS011;9807;48.258;12.690;2023-10-19T02:21:12;18.13;;;13.20;;
19341;SDS011;9807;48.258;12.690;2023-10-19T02:23:39;17.33;;;13.13;;
19341;SDS011;9807;48.258;12.690;2023-10-19T02:26:09;12.30;;;10.10;;
19341;SDS011;9807;48.258;12.690;2023-10-19T02:28:39;11.57;;;10.17;;
19341;SDS011;9807;48.258;12.690;2023-10-19T02:31:05;11.83;;;9.93;;
19341;SDS011;9807;48.258;12.690;2023-10-19T02:33:42;22.47;;;13.60;;
19341;SDS011;9807;48.258;12.690;2023-10-19T02:36:20;12.97;;;9.80;;
19341;SDS011;9807;48.258;12.690;2023-10-19T02:38:46;16.90;;;13.30;;
19341;SDS011;9807;48.258;12.690;2023-10-19T02:41:16;23.27;;;15.23;;
19341;SDS011;9807;48.258;12.690;2023-10-19T02:43:44;16.23;;;12.17;;
19341;SDS011;9807;48.258;12.690;2023-10-19T02:46:12;14.13;;;10.30;;
19341;SDS011;9807;48.258;12.690;2023-10-19T02:48:42;18.33;;;13.70;;
19341;SDS011;9807;48.258;12.690;2023-10-19T02:51:12;16.87;;;11.80;;
19341;SDS011;9807;48.258;12.690;2023-10-19T02:53:40;12.13;;;9.60;;
19341;SDS011;9807;48.258;12.690;2023-10-19T02:56:16;14.43;;;10.60;;
19341;SDS011;9807;48.258;12.690;2023-10-19T02:58:44;20.20;;;14.30;;
19341;SDS011;9807;48.258;12.690;2023-10-19T03:01:17;12.37;;;10.33;;
19341;SDS011;9807;48.258;12.690;2023-10-19T03:03:52;12.10;;;9.83;;
19341;SDS011;9807;48.258;12.690;2023-10-19T03:06:23;14.87;;;11.70;;
19341;SDS011;9807;48.258;12.690;2023-10-19T03:08:49;14.17;;;10.90;;
19341;SDS011;9807;48.258;12.690;2023-10-19T03:11:26;13.00;;;10.63;;
19341;SDS011;9807;48.258;12.690;2023-10-19T03:13:54;18.20;;;11.17;;
19341;SDS011;9807;48.258;12.690;2023-10-19T03:16:22;12.37;;;10.47;;
19341;SDS011;9807;48.258;12.690;2023-10-19T03:18:48;12.07;;;10.43;;
19341;SDS011;9807;48.258;12.690;2023-10-19T03:21:19;12.43;;;10.13;;
19341;SDS011;9807;48.258;12.690;2023-10-19T03:23:51;12.43;;;10.43;;
19341;SDS011;9807;48.258;12.690;2023-10-19T03:26:21;12.53;;;10.17;;
19341;SDS011;9807;48.258;12.690;2023-10-19T03:28:52;15.87;;;11.93;;
19341;SDS011;9807;48.258;12.690;2023-10-19T03:31:24;21.77;;;16.80;;
19341;SDS011;9807;48.258;12.690;2023-10-19T03:33:50;16.37;;;11.80;;
19341;SDS011;9807;48.258;12.690;2023-10-19T03:36:21;21.73;;;15.20;;
19341;SDS011;9807;48.258;12.690;2023-10-19T03:38:51;18.27;;;14.23;;
19341;SDS011;9807;48.258;12.690;2023-10-19T03:41:19;14.97;;;12.17;;
19341;SDS011;9807;48.258;12.690;2023-10-19T03:43:53;26.53;;;18.10;;
19341;SDS011;9807;48.258;12.690;2023-10-19T03:46:19;22.10;;;17.13;;
19341;SDS011;9807;48.258;12.690;2023-10-19T03:48:58;25.67;;;18.97;;
19341;SDS011;9807;48.258;12.690;2023-10-19T03:51:28;30.23;;;20.80;;
19341;SDS011;9807;48.258;12.690;2023-10-19T03:54:05;30.53;;;19.90;;
19341;SDS011;9807;48.258;12.690;2023-10-19T03:56:40;22.33;;;15.47;;
19341;SDS011;9807;48.258;12.690;2023-10-19T03:59:06;16.23;;;12.73;;
19341;SDS011;9807;48.258;12.690;2023-10-19T04:01:32;18.13;;;13.43;;
19341;SDS011;9807;48.258;12.690;2023-10-19T04:03:57;16.47;;;12.93;;
19341;SDS011;9807;48.258;12.690;2023-10-19T04:06:23;18.83;;;14.20;;
19341;SDS011;9807;48.258;12.690;2023-10-19T04:08:49;18.07;;;13.90;;
19341;SDS011;9807;48.258;12.690;2023-10-19T04:11:16;16.10;;;12.53;;
19341;SDS011;9807;48.258;12.690;2023-10-19T04:13:49;19.97;;;15.20;;
19341;SDS011;9807;48.258;12.690;2023-10-19T04:16:21;16.60;;;12.80;;
19341;SDS011;9807;48.258;12.690;2023-10-19T04:18:46;16.87;;;12.40;;
19341;SDS011;9807;48.258;12.690;2023-10-19T04:21:13;24.27;;;18.03;;
19341;SDS011;9807;48.258;12.690;2023-10-19T04:23:42;15.03;;;11.27;;
19341;SDS011;9807;48.258;12.690;2023-10-19T04:26:08;11.10;;;9.77;;
19341;SDS011;9807;48.258;12.690;2023-10-19T04:28:38;28.87;;;20.33;;
19341;SDS011;9807;48.258;12.690;2023-10-19T04:31:10;17.20;;;12.83;;
19341;SDS011;9807;48.258;12.690;2023-10-19T04:33:42;12.83;;;10.43;;
19341;SDS011;9807;48.258;12.690;2023-10-19T04:36:11;13.37;;;9.93;;
19341;SDS011;9807;48.258;12.690;2023-10-19T04:38:39;13.00;;;10.67;;
19341;SDS011;9807;48.258;12.690;2023-10-19T04:41:08;12.60;;;10.23;;
19341;SDS011;9807;48.258;12.690;2023-10-19T04:43:35;23.40;;;17.77;;
19341;SDS011;9807;48.258;12.690;2023-10-19T04:46:06;17.03;;;13.17;;
19341;SDS011;9807;48.258;12.690;2023-10-19T04:48:44;24.43;;;17.27;;
19341;SDS011;9807;48.258;12.690;2023-10-19T04:51:09;17.80;;;13.53;;
19341;SDS011;9807;48.258;12.690;2023-10-19T04:53:36;16.37;;;12.43;;
19341;SDS011;9807;48.258;12.690;2023-10-19T04:56:07;21.33;;;15.63;;
19341;SDS011;9807;48.258;12.690;2023-10-19T04:58:36;22.20;;;14.60;;
19341;SDS011;9807;48.258;12.690;2023-10-19T05:01:02;15.63;;;11.70;;
19341;SDS011;9807;48.258;12.690;2023-10-19T05:03:29;15.43;;;11.30;;
19341;SDS011;9807;48.258;12.690;2023-10-19T05:05:55;18.00;;;14.07;;
19341;SDS011;9807;48.258;12.690;2023-10-19T05:08:21;17.57;;;11.40;;
19341;SDS011;9807;48.258;12.690;2023-10-19T05:10:50;25.20;;;17.60;;
19341;SDS011;9807;48.258;12.690;2023-10-19T05:13:17;15.37;;;11.77;;
19341;SDS011;9807;48.258;12.690;2023-10-19T05:15:44;21.00;;;16.03;;
19341;SDS011;9807;48.258;12.690;2023-10-19T05:18:09;17.67;;;13.70;;
19341;SDS011;9807;48.258;12.690;2023-10-19T05:20:35;16.20;;;11.70;;
19341;SDS011;9807;48.258;12.690;2023-10-19T05:23:05;14.67;;;11.87;;
19341;SDS011;9807;48.258;12.690;2023-10-19T05:25:39;14.10;;;10.87;;
19341;SDS011;9807;48.258;12.690;2023-10-19T05:28:05;16.53;;;11.63;;
19341;SDS011;9807;48.258;12.690;2023-10-19T05:30:31;14.77;;;12.03;;
19341;SDS011;9807;48.258;12.690;2023-10-19T05:32:58;15.70;;;11.87;;
19341;SDS011;9807;48.258;12.690;2023-10-19T05:35:25;18.60;;;15.27;;
19341;SDS011;9807;48.258;12.690;2023-10-19T05:37:54;26.30;;;19.57;;
19341;SDS011;9807;48.258;12.690;2023-10-19T05:40:22;27.47;;;18.63;;
19341;SDS011;9807;48.258;12.690;2023-10-19T05:42:54;20.87;;;15.77;;
19341;SDS011;9807;48.258;12.690;2023-10-19T05:45:20;32.90;;;21.50;;
19341;SDS011;9807;48.258;12.690;2023-10-19T05:47:45;35.10;;;20.23;;
19341;SDS011;9807;48.258;12.690;2023-10-19T05:50:11;27.60;;;20.80;;
19341;SDS011;9807;48.258;12.690;2023-10-19T05:52:41;27.37;;;20.73;;
19341;SDS011;9807;48.258;12.690;2023-10-19T05:55:08;20.93;;;15.27;;
19341;SDS011;9807;48.258;12.690;2023-10-19T05:57:39;16.47;;;12.53;;
19341;SDS011;9807;48.258;12.690;2023-10-19T06:00:06;15.57;;;12.60;;
19341;SDS011;9807;48.258;12.690;2023-10-19T06:02:38;14.63;;;11.77;;
19341;SDS011;9807;48.258;12.690;2023-10-19T06:05:11;16.00;;;12.40;;
19341;SDS011;9807;48.258;12.690;2023-10-19T06:07:41;23.17;;;17.63;;
19341;SDS011;9807;48.258;12.690;2023-10-19T06:10:11;17.07;;;12.87;;
19341;SDS011;9807;48.258;12.690;2023-10-19T06:12:41;23.47;;;17.50;;
19341;SDS011;9807;48.258;12.690;2023-10-19T06:15:09;14.93;;;12.00;;
19341;SDS011;9807;48.258;12.690;2023-10-19T06:17:41;15.67;;;12.17;;
19341;SDS011;9807;48.258;12.690;2023-10-19T06:20:08;18.97;;;13.87;;
19341;SDS011;9807;48.258;12.690;2023-10-19T06:22:47;28.83;;;19.57;;
19341;SDS011;9807;48.258;12.690;2023-10-19T06:25:19;28.40;;;21.37;;
19341;SDS011;9807;48.258;12.690;2023-10-19T06:27:48;26.87;;;20.67;;
19341;SDS011;9807;48.258;12.690;2023-10-19T06:30:15;32.47;;;23.37;;
19341;SDS011;9807;48.258;12.690;2023-10-19T06:32:48;33.43;;;21.90;;
19341;SDS011;9807;48.258;12.690;2023-10-19T06:35:16;19.33;;;13.97;;
19341;SDS011;9807;48.258;12.690;2023-10-19T06:37:42;16.50;;;12.50;;
19341;SDS011;9807;48.258;12.690;2023-10-19T06:40:09;17.27;;;13.37;;
19341;SDS011;9807;48.258;12.690;2023-10-19T06:42:43;14.00;;;11.63;;
19341;SDS011;9807;48.258;12.690;2023-10-19T06:45:12;25.50;;;18.70;;
19341;SDS011;9807;48.258;12.690;2023-10-19T06:47:45;22.80;;;17.13;;
19341;SDS011;9807;48.258;12.690;2023-10-19T06:50:12;32.70;;;22.10;;
19341;SDS011;9807;48.258;12.690;2023-10-19T06:52:46;30.30;;;21.37;;
19341;SDS011;9807;48.258;12.690;2023-10-19T06:55:16;18.63;;;14.03;;
19341;SDS011;9807;48.258;12.690;2023-10-19T06:57:46;23.23;;;16.83;;
19341;SDS011;9807;48.258;12.690;2023-10-19T07:00:13;28.03;;;19.47;;
19341;SDS011;9807;48.258;12.690;2023-10-19T07:02:44;30.90;;;21.37;;
19341;SDS011;9807;48.258;12.690;2023-10-19T07:05:14;43.60;;;24.23;;
19341;SDS011;9807;48.258;12.690;2023-10-19T07:07:44;33.50;;;23.93;;
19341;SDS011;9807;48.258;12.690;2023-10-19T07:10:11;33.83;;;25.07;;
19341;SDS011;9807;48.258;12.690;2023-10-19T07:12:41;34.17;;;25.40;;
19341;SDS011;9807;48.258;12.690;2023-10-19T07:15:09;31.47;;;20.97;;
19341;SDS011;9807;48.258;12.690;2023-10-19T07:17:42;30.80;;;21.47;;
19341;SDS011;9807;48.258;12.690;2023-10-19T07:20:09;19.10;;;15.00;;
19341;SDS011;9807;48.258;12.690;2023-10-19T07:22:50;20.30;;;15.37;;
19341;SDS011;9807;48.258;12.690;2023-10-19T07:25:28;28.90;;;19.47;;
19341;SDS011;9807;48.258;12.690;2023-10-19T07:27:54;22.80;;;17.00;;
19341;SDS011;9807;48.258;12.690;2023-10-19T07:30:20;23.40;;;18.10;;
19341;SDS011;9807;48.258;12.690;2023-10-19T07:32:51;29.27;;;21.97;;
19341;SDS011;9807;48.258;12.690;2023-10-19T07:35:23;26.63;;;19.17;;
19341;SDS011;9807;48.258;12.690;2023-10-19T07:37:51;24.47;;;18.47;;
19341;SDS011;9807;48.258;12.690;2023-10-19T07:40:17;27.07;;;20.43;;
19341;SDS011;9807;48.258;12.690;2023-10-19T07:42:46;29.57;;;21.87;;
19341;SDS011;9807;48.258;12.690;2023-10-19T07:45:14;28.50;;;19.87;;
19341;SDS011;9807;48.258;12.690;2023-10-19T07:47:41;27.77;;;19.40;;
19341;SDS011;9807;48.258;12.690;2023-10-19T07:50:08;25.73;;;18.87;;
19341;SDS011;9807;48.258;12.690;2023-10-19T07:52:41;25.90;;;18.77;;
19341;SDS011;9807;48.258;12.690;2023-10-19T07:55:17;23.63;;;18.33;;
19341;SDS011;9807;48.258;12.690;2023-10-19T07:57:44;30.63;;;21.63;;
19341;SDS011;9807;48.258;12.690;2023-10-19T08:00:10;21.57;;;17.20;;
19341;SDS011;9807;48.258;12.690;2023-10-19T08:02:40;29.60;;;21.50;;
19341;SDS011;9807;48.258;12.690;2023-10-19T08:05:07;29.43;;;21.33;;
19341;SDS011;9807;48.258;12.690;2023-10-19T08:07:36;27.70;;;19.60;;
19341;SDS011;9807;48.258;12.690;2023-10-19T08:10:05;30.10;;;22.33;;
19341;SDS011;9807;48.258;12.690;2023-10-19T08:12:34;27.07;;;20.87;;
19341;SDS011;9807;48.258;12.690;2023-10-19T08:15:01;27.57;;;19.53;;
19341;SDS011;9807;48.258;12.690;2023-10-19T08:17:27;30.23;;;23.30;;
19341;SDS011;9807;48.258;12.690;2023-10-19T08:19:52;24.43;;;17.90;;
19341;SDS011;9807;48.258;12.690;2023-10-19T08:22:18;33.70;;;24.57;;
19341;SDS011;9807;48.258;12.690;2023-10-19T08:24:44;30.97;;;23.53;;
19341;SDS011;9807;48.258;12.690;2023-10-19T08:27:11;25.80;;;18.40;;
19341;SDS011;9807;48.258;12.690;2023-10-19T08:29:38;29.40;;;20.60;;
19341;SDS011;9807;48.258;12.690;2023-10-19T08:32:04;34.37;;;23.30;;
19341;SDS011;9807;48.258;12.690;2023-10-19T08:34:34;26.10;;;19.93;;
19341;SDS011;9807;48.258;12.690;2023-10-19T08:37:01;20.53;;;15.87;;
19341;SDS011;9807;48.258;12.690;2023-10-19T08:39:29;28.93;;;21.23;;
19341;SDS011;9807;48.258;12.690;2023-10-19T08:42:01;30.73;;;22.90;;
19341;SDS011;9807;48.258;12.690;2023-10-19T08:44:29;22.90;;;17.87;;
19341;SDS011;9807;48.258;12.690;2023-10-19T08:46:55;22.17;;;16.57;;
19341;SDS011;9807;48.258;12.690;2023-10-19T08:49:22;30.40;;;22.30;;
19341;SDS011;9807;48.258;12.690;2023-10-19T08:51:48;35.07;;;24.37;;
19341;SDS011;9807;48.258;12.690;2023-10-19T08:54:16;34.97;;;23.73;;
19341;SDS011;9807;48.258;12.690;2023-10-19T08:56:42;31.73;;;24.80;;
19341;SDS011;9807;48.258;12.690;2023-10-19T08:59:09;24.70;;;18.07;;
19341;SDS011;9807;48.258;12.690;2023-10-19T09:01:36;31.67;;;23.00;;
19341;SDS011;9807;48.258;12.690;2023-10-19T09:04:02;38.67;;;25.80;;
19341;SDS011;9807;48.258;12.690;2023-10-19T09:06:31;30.97;;;22.43;;
19341;SDS011;9807;48.258;12.690;2023-10-19T09:09:06;32.50;;;23.20;;
19341;SDS011;9807;48.258;12.690;2023-10-19T09:11:34;32.20;;;22.90;;
19341;SDS011;9807;48.258;12.690;2023-10-19T09:14:00;26.80;;;19.17;;
19341;SDS011;9807;48.258;12.690;2023-10-19T09:16:28;27.20;;;20.10;;
19341;SDS011;9807;48.258;12.690;2023-10-19T09:18:55;28.80;;;20.20;;
19341;SDS011;9807;48.258;12.690;2023-10-19T09:21:22;34.63;;;23.23;;
19341;SDS011;9807;48.258;12.690;2023-10-19T09:23:51;29.80;;;22.30;;
19341;SDS011;9807;48.258;12.690;2023-10-19T09:26:18;29.43;;;21.60;;
19341;SDS011;9807;48.258;12.690;2023-10-19T09:28:46;23.40;;;18.07;;
19341;SDS011;9807;48.258;12.690;2023-10-19T09:31:14;28.73;;;21.77;;
19341;SDS011;9807;48.258;12.690;2023-10-19T09:33:41;22.50;;;17.63;;
19341;SDS011;9807;48.258;12.690;2023-10-19T09:36:15;29.07;;;20.93;;
19341;SDS011;9807;48.258;12.690;2023-10-19T09:38:47;23.27;;;18.40;;
19341;SDS011;9807;48.258;12.690;2023-10-19T09:41:17;26.73;;;19.90;;
19341;SDS011;9807;48.258;12.690;2023-10-19T09:43:45;27.57;;;20.90;;
19341;SDS011;9807;48.258;12.690;2023-10-19T09:46:24;28.80;;;22.83;;
19341;SDS011;9807;48.258;12.690;2023-10-19T09:48:54;30.60;;;20.60;;
19341;SDS011;9807;48.258;12.690;2023-10-19T09:51:20;30.03;;;22.73;;
19341;SDS011;9807;48.258;12.690;2023-10-19T09:53:56;30.60;;;21.40;;
19341;SDS011;9807;48.258;12.690;2023-10-19T09:56:49;25.40;;;18.20;;
19341;SDS011;9807;48.258;12.690;2023-10-19T09:59:34;34.83;;;21.80;;
19341;SDS011;9807;48.258;12.690;2023-10-19T10:02:08;32.60;;;19.73;;
19341;SDS011;9807;48.258;12.690;2023-10-19T10:04:38;28.40;;;20.87;;
19341;SDS011;9807;48.258;12.690;2023-10-19T10:07:05;22.27;;;17.43;;
19341;SDS011;9807;48.258;12.690;2023-10-19T10:09:36;25.70;;;19.53;;
19341;SDS011;9807;48.258;12.690;2023-10-19T10:12:18;29.10;;;22.17;;
19341;SDS011;9807;48.258;12.690;2023-10-19T10:14:56;29.27;;;21.53;;
19341;SDS011;9807;48.258;12.690;2023-10-19T10:17:24;24.67;;;19.23;;
19341;SDS011;9807;48.258;12.690;2023-10-19T10:22:42;27.40;;;19.73;;
19341;SDS011;9807;48.258;12.690;2023-10-19T10:25:30;35.13;;;21.67;;
19341;SDS011;9807;48.258;12.690;2023-10-19T10:27:56;23.63;;;17.13;;
19341;SDS011;9807;48.258;12.690;2023-10-19T10:30:21;29.67;;;20.63;;
19341;SDS011;9807;48.258;12.690;2023-10-19T10:32:48;32.13;;;20.90;;
19341;SDS011;9807;48.258;12.690;2023-10-19T10:38:06;24.30;;;17.33;;
19341;SDS011;9807;48.258;12.690;2023-10-19T10:40:47;25.67;;;19.80;;
19341;SDS011;9807;48.258;12.690;2023-10-19T10:43:16;26.87;;;20.03;;
19341;SDS011;9807;48.258;12.690;2023-10-19T10:45:42;26.37;;;19.37;;
19341;SDS011;9807;48.258;12.690;2023-10-19T10:48:15;32.43;;;20.97;;
19341;SDS011;9807;48.258;12.690;2023-10-19T10:50:44;27.30;;;20.60;;
19341;SDS011;9807;48.258;12.690;2023-10-19T10:53:12;27.67;;;19.60;;
19341;SDS011;9807;48.258;12.690;2023-10-19T10:55:40;31.40;;;20.17;;
19341;SDS011;9807;48.258;12.690;2023-10-19T10:58:06;23.30;;;18.53;;
19341;SDS011;9807;48.258;12.690;2023-10-19T11:00:33;22.87;;;17.53;;
19341;SDS011;9807;48.258;12.690;2023-10-19T11:03:02;21.00;;;15.97;;
19341;SDS011;9807;48.258;12.690;2023-10-19T11:05:32;26.10;;;18.87;;
19341;SDS011;9807;48.258;12.690;2023-10-19T11:08:10;22.33;;;17.13;;
19341;SDS011;9807;48.258;12.690;2023-10-19T11:10:41;25.73;;;18.57;;
19341;SDS011;9807;48.258;12.690;2023-10-19T11:13:10;25.87;;;18.47;;
19341;SDS011;9807;48.258;12.690;2023-10-19T11:15:53;26.97;;;18.20;;
19341;SDS011;9807;48.258;12.690;2023-10-19T11:18:54;25.50;;;18.20;;
19341;SDS011;9807;48.258;12.690;2023-10-19T11:21:15;23.57;;;16.73;;
19341;SDS011;9807;48.258;12.690;2023-10-19T11:23:46;23.27;;;17.40;;
19341;SDS011;9807;48.258;12.690;2023-10-19T11:26:17;22.37;;;17.40;;
19341;SDS011;9807;48.258;12.690;2023-10-19T11:28:45;25.17;;;17.20;;
19341;SDS011;9807;48.258;12.690;2023-10-19T11:33:47;21.73;;;16.10;;
19341;SDS011;9807;48.258;12.690;2023-10-19T11:36:18;21.10;;;14.30;;
19341;SDS011;9807;48.258;12.690;2023-10-19T11:38:46;20.33;;;14.67;;
19341;SDS011;9807;48.258;12.690;2023-10-19T11:41:12;16.77;;;13.00;;
19341;SDS011;9807;48.258;12.690;2023-10-19T11:43:44;19.33;;;14.63;;
19341;SDS011;9807;48.258;12.690;2023-10-19T11:46:11;20.50;;;14.30;;
19341;SDS011;9807;48.258;12.690;2023-10-19T11:48:37;18.57;;;13.97;;
19341;SDS011;9807;48.258;12.690;2023-10-19T11:51:10;19.77;;;15.20;;
19341;SDS011;9807;48.258;12.690;2023-10-19T11:53:36;20.83;;;14.57;;
19341;SDS011;9807;48.258;12.690;2023-10-19T11:56:03;20.60;;;14.67;;
19341;SDS011;9807;48.258;12.690;2023-10-19T11:58:33;17.83;;;13.80;;
19341;SDS011;9807;48.258;12.690;2023-10-19T12:01:03;21.83;;;16.83;;
19341;SDS011;9807;48.258;12.690;2023-10-19T12:03:40;19.90;;;15.73;;
19341;SDS011;9807;48.258;12.690;2023-10-19T12:06:07;19.43;;;14.93;;
19341;SDS011;9807;48.258;12.690;2023-10-19T12:08:36;18.70;;;13.33;;
19341;SDS011;9807;48.258;12.690;2023-10-19T12:11:03;20.30;;;14.83;;
19341;SDS011;9807;48.258;12.690;2023-10-19T12:13:30;19.67;;;13.97;;
19341;SDS011;9807;48.258;12.690;2023-10-19T12:15:56;18.37;;;14.83;;
19341;SDS011;9807;48.258;12.690;2023-10-19T12:18:23;22.10;;;15.43;;
19341;SDS011;9807;48.258;12.690;2023-10-19T12:20:50;22.70;;;16.13;;
19341;SDS011;9807;48.258;12.690;2023-10-19T12:23:21;28.37;;;16.50;;
19341;SDS011;9807;48.258;12.690;2023-10-19T12:25:48;27.30;;;16.77;;
19341;SDS011;9807;48.258;12.690;2023-10-19T12:28:15;21.97;;;15.23;;
19341;SDS011;9807;48.258;12.690;2023-10-19T12:30:41;15.87;;;12.63;;
19341;SDS011;9807;48.258;12.690;2023-10-19T12:33:07;18.07;;;13.13;;
19341;SDS011;9807;48.258;12.690;2023-10-19T12:35:40;18.93;;;13.60;;
19341;SDS011;9807;48.258;12.690;2023-10-19T12:38:22;17.70;;;13.60;;
19341;SDS011;9807;48.258;12.690;2023-10-19T12:40:48;17.63;;;14.23;;
19341;SDS011;9807;48.258;12.690;2023-10-19T12:43:19;23.63;;;13.47;;
19341;SDS011;9807;48.258;12.690;2023-10-19T12:45:49;19.03;;;14.20;;
19341;SDS011;9807;48.258;12.690;2023-10-19T12:48:18;21.43;;;14.20;;
19341;SDS011;9807;48.258;12.690;2023-10-19T12:50:45;19.17;;;13.43;;
19341;SDS011;9807;48.258;12.690;2023-10-19T12:53:11;16.27;;;12.07;;
19341;SDS011;9807;48.258;12.690;2023-10-19T12:55:39;16.00;;;11.80;;
19341;SDS011;9807;48.258;12.690;2023-10-19T12:58:08;15.20;;;12.00;;
19341;SDS011;9807;48.258;12.690;2023-10-19T13:00:35;16.87;;;11.53;;
19341;SDS011;9807;48.258;12.690;2023-10-19T13:03:05;13.57;;;10.63;;
19341;SDS011;9807;48.258;12.690;2023-10-19T13:05:34;14.00;;;10.63;;
19341;SDS011;9807;48.258;12.690;2023-10-19T13:08:04;16.97;;;12.90;;
19341;SDS011;9807;48.258;12.690;2023-10-19T13:10:32;17.47;;;12.50;;
19341;SDS011;9807;48.258;12.690;2023-10-19T13:13:02;17.23;;;12.87;;
19341;SDS011;9807;48.258;12.690;2023-10-19T13:15:32;15.17;;;10.97;;
19341;SDS011;9807;48.258;12.690;2023-10-19T13:18:03;16.10;;;12.23;;
19341;SDS011;9807;48.258;12.690;2023-10-19T13:20:30;17.40;;;12.97;;
19341;SDS011;9807;48.258;12.690;2023-10-19T13:23:03;16.93;;;12.50;;
19341;SDS011;9807;48.258;12.690;2023-10-19T13:25:31;16.57;;;12.97;;
19341;SDS011;9807;48.258;12.690;2023-10-19T13:28:10;16.77;;;12.73;;
19341;SDS011;9807;48.258;12.690;2023-10-19T13:30:37;16.80;;;13.47;;
19341;SDS011;9807;48.258;12.690;2023-10-19T13:33:04;22.00;;;14.77;;
19341;SDS011;9807;48.258;12.690;2023-10-19T13:35:31;14.23;;;11.67;;
19341;SDS011;9807;48.258;12.690;2023-10-19T13:37:57;19.00;;;12.10;;
19341;SDS011;9807;48.258;12.690;2023-10-19T13:40:22;17.70;;;13.13;;
19341;SDS011;9807;48.258;12.690;2023-10-19T13:42:49;17.47;;;13.43;;
19341;SDS011;9807;48.258;12.690;2023-10-19T13:45:14;17.83;;;12.23;;
19341;SDS011;9807;48.258;12.690;2023-10-19T13:47:41;12.83;;;10.80;;
19341;SDS011;9807;48.258;12.690;2023-10-19T13:50:06;13.97;;;10.63;;
19341;SDS011;9807;48.258;12.690;2023-10-19T13:52:33;13.60;;;10.60;;
19341;SDS011;9807;48.258;12.690;2023-10-19T13:55:00;15.03;;;11.47;;
19341;SDS011;9807;48.258;12.690;2023-10-19T13:57:26;15.60;;;10.33;;
19341;SDS011;9807;48.258;12.690;2023-10-19T13:59:51;13.23;;;10.73;;
19341;SDS011;9807;48.258;12.690;2023-10-19T14:02:18;15.67;;;11.80;;
19341;SDS011;9807;48.258;12.690;2023-10-19T14:04:44;14.30;;;10.20;;
19341;SDS011;9807;48.258;12.690;2023-10-19T14:07:11;13.70;;;10.97;;
19341;SDS011;9807;48.258;12.690;2023-10-19T14:09:37;17.17;;;11.43;;
19341;SDS011;9807;48.258;12.690;2023-10-19T14:12:02;11.40;;;9.83;;
19341;SDS011;9807;48.258;12.690;2023-10-19T14:14:29;14.30;;;11.30;;
19341;SDS011;9807;48.258;12.690;2023-10-19T14:16:58;15.03;;;12.30;;
19341;SDS011;9807;48.258;12.690;2023-10-19T14:19:24;14.47;;;10.73;;
19341;SDS011;9807;48.258;12.690;2023-10-19T14:21:50;13.00;;;10.40;;
19341;SDS011;9807;48.258;12.690;2023-10-19T14:24:16;13.73;;;11.30;;
19341;SDS011;9807;48.258;12.690;2023-10-19T14:26:43;12.00;;;10.07;;
19341;SDS011;9807;48.258;12.690;2023-10-19T14:29:11;13.07;;;10.13;;
19341;SDS011;9807;48.258;12.690;2023-10-19T14:31:39;14.37;;;10.60;;
19341;SDS011;9807;48.258;12.690;2023-10-19T14:34:05;16.27;;;11.83;;
19341;SDS011;9807;48.258;12.690;2023-10-19T14:36:33;12.50;;;9.80;;
19341;SDS011;9807;48.258;12.690;2023-10-19T14:38:58;13.27;;;10.00;;
19341;SDS011;9807;48.258;12.690;2023-10-19T14:41:24;13.30;;;10.00;;
19341;SDS011;9807;48.258;12.690;2023-10-19T14:43:50;12.60;;;9.23;;
19341;SDS011;9807;48.258;12.690;2023-10-19T14:46:16;12.40;;;8.80;;
19341;SDS011;9807;48.258;12.690;2023-10-19T14:48:42;9.17;;;7.50;;